PWSweather.com
Personal Weather Stations
Station Observations
IBRABANT12
Leuven, BlandenBE 3052

LeuvenBlandenBE 3052

Lat: 50.8252218, Lon: 4.709682799999996

Elevation: 193

Station Type: Davis Vantage Vue

http://www.weerstationblanden.be

Latest ConditionsUpdated 10:30:11 PM GMT+01:01 Friday, Feb 24, 2017
Currently Today's Max Today's Min Today's Average
Temperature 34.5°F1.4°C 45.2°F7.3°C 34.5°F1.4°C 41.4°F5.2°C
Dew Point 32.7°F0.4°C 39.4°F4.1°C 32.7°F0.4°C 37.1°F2.8°C
Winds Calm Calm 14.8 mph NW23.8 kmh NW - 4.4 mph 7.1 kmh
Wind Gusts -- 24.0 mph38.6 kmh - -
Humidity 93% 93% 72% 85%
Pressure 30.09 in1019.0 mb 30.09 in1019.0 mb 29.55 in1000.7 mb -
Precipitation - 0.02 in0.5 mm - -
Hour Temp Dew Point Humidity Winds Wind Gusts Pressure Precip Precip Rate Daily Precip Total
10:30 PM 34.5°F1.4°C 32.7°F0.4°C 93% Calm Calm -- 30.09 in1019.0 mb - 0.00 in0.0 mm 0.02 in0.5 mm
10:20 PM 34.9°F1.6°C 33.1°F0.6°C 93% Calm Calm -- 30.09 in1019.0 mb - 0.00 in0.0 mm 0.02 in0.5 mm
10:10 PM 35.3°F1.8°C 33.5°F0.8°C 93% Calm Calm -- 30.08 in1018.6 mb - 0.00 in0.0 mm 0.02 in0.5 mm
10:00 PM 35.8°F2.1°C 34.0°F1.1°C 93% Calm Calm -- 30.09 in1019.0 mb - 0.00 in0.0 mm 0.02 in0.5 mm
09:50 PM 36.1°F2.3°C 34.0°F1.1°C 92% Calm Calm -- 30.08 in1018.6 mb - 0.00 in0.0 mm 0.02 in0.5 mm
09:40 PM 36.7°F2.6°C 34.6°F1.4°C 92% Calm Calm -- 30.08 in1018.6 mb - 0.00 in0.0 mm 0.02 in0.5 mm
09:30 PM 37.5°F3.1°C 35.1°F1.7°C 91% Calm Calm -- 30.08 in1018.6 mb - 0.00 in0.0 mm 0.02 in0.5 mm
09:20 PM 38.1°F3.4°C 35.7°F2.1°C 91% Calm Calm -- 30.08 in1018.6 mb - 0.00 in0.0 mm 0.02 in0.5 mm
09:10 PM 38.9°F3.8°C 36.2°F2.3°C 90% Calm Calm -- 30.08 in1018.6 mb - 0.00 in0.0 mm 0.02 in0.5 mm
09:00 PM 39.7°F4.3°C 36.7°F2.6°C 89% Calm Calm -- 30.07 in1018.3 mb - 0.00 in0.0 mm 0.02 in0.5 mm
08:50 PM 40.2°F4.6°C 37.2°F2.9°C 89% Calm Calm -- 30.07 in1018.3 mb - 0.00 in0.0 mm 0.02 in0.5 mm
08:40 PM 40.7°F4.8°C 37.4°F3.0°C 88% Calm Calm -- 30.07 in1018.3 mb - 0.00 in0.0 mm 0.02 in0.5 mm
08:30 PM 41.0°F5.0°C 37.4°F3.0°C 87% Calm Calm -- 30.06 in1017.9 mb - 0.00 in0.0 mm 0.02 in0.5 mm
08:20 PM 41.6°F5.3°C 37.4°F3.0°C 85% 0.1 mph W0.2 kmh W -- 30.06 in1017.9 mb - 0.00 in0.0 mm 0.02 in0.5 mm
08:10 PM 41.6°F5.3°C 37.2°F2.9°C 84% 0.6 mph W1.0 kmh W 1.0 mph1.6 kmh 30.06 in1017.9 mb - 0.00 in0.0 mm 0.02 in0.5 mm
08:00 PM 41.7°F5.4°C 37.2°F2.9°C 84% 1.3 mph W2.1 kmh W 2.0 mph3.2 kmh 30.06 in1017.9 mb - 0.00 in0.0 mm 0.02 in0.5 mm
07:50 PM 41.8°F5.4°C 37.3°F2.9°C 84% 2.1 mph NW3.4 kmh NW 3.0 mph4.8 kmh 30.06 in1017.9 mb - 0.00 in0.0 mm 0.02 in0.5 mm
07:40 PM 41.6°F5.3°C 37.2°F2.9°C 84% 2.1 mph W3.4 kmh W 5.0 mph8.0 kmh 30.06 in1017.9 mb - 0.00 in0.0 mm 0.02 in0.5 mm
07:30 PM 41.6°F5.3°C 37.1°F2.8°C 84% 0.5 mph W0.8 kmh W 1.0 mph1.6 kmh 30.05 in1017.6 mb - 0.00 in0.0 mm 0.02 in0.5 mm
07:20 PM 41.5°F5.3°C 37.0°F2.8°C 84% 1.2 mph W1.9 kmh W 2.0 mph3.2 kmh 30.05 in1017.6 mb - 0.00 in0.0 mm 0.02 in0.5 mm
07:10 PM 41.4°F5.2°C 36.9°F2.7°C 84% 2.2 mph W3.5 kmh W 3.0 mph4.8 kmh 30.05 in1017.6 mb - 0.00 in0.0 mm 0.02 in0.5 mm
07:00 PM 41.2°F5.1°C 37.0°F2.8°C 85% 2.0 mph NW3.2 kmh NW 3.0 mph4.8 kmh 30.04 in1017.3 mb - 0.00 in0.0 mm 0.02 in0.5 mm
06:50 PM 41.2°F5.1°C 36.7°F2.6°C 84% 1.8 mph WNW2.9 kmh WNW 4.0 mph6.4 kmh 30.04 in1017.3 mb - 0.00 in0.0 mm 0.02 in0.5 mm
06:40 PM 41.5°F5.3°C 36.7°F2.6°C 83% 0.8 mph WNW1.3 kmh WNW 1.0 mph1.6 kmh 30.03 in1016.9 mb - 0.00 in0.0 mm 0.02 in0.5 mm
06:30 PM 41.9°F5.5°C 36.8°F2.7°C 82% 1.7 mph W2.7 kmh W 3.0 mph4.8 kmh 30.02 in1016.6 mb - 0.00 in0.0 mm 0.02 in0.5 mm
06:20 PM 42.2°F5.7°C 37.1°F2.8°C 82% 1.6 mph W2.6 kmh W 2.0 mph3.2 kmh 30.02 in1016.6 mb - 0.00 in0.0 mm 0.02 in0.5 mm
06:10 PM 42.5°F5.8°C 37.1°F2.8°C 81% 1.7 mph WNW2.7 kmh WNW 2.0 mph3.2 kmh 30.01 in1016.3 mb - 0.00 in0.0 mm 0.02 in0.5 mm
06:00 PM 42.8°F6.0°C 37.1°F2.8°C 80% 1.5 mph W2.4 kmh W 4.0 mph6.4 kmh 30.00 in1015.9 mb - 0.00 in0.0 mm 0.02 in0.5 mm
05:50 PM 43.1°F6.2°C 37.3°F2.9°C 80% 2.2 mph WSW3.5 kmh WSW 3.0 mph4.8 kmh 30.00 in1015.9 mb - 0.00 in0.0 mm 0.02 in0.5 mm
05:40 PM 43.3°F6.3°C 37.5°F3.1°C 80% 2.9 mph W4.7 kmh W 4.0 mph6.4 kmh 30.00 in1015.9 mb - 0.00 in0.0 mm 0.02 in0.5 mm
05:30 PM 43.4°F6.3°C 37.3°F2.9°C 79% 4.1 mph WSW6.6 kmh WSW 5.0 mph8.0 kmh 29.99 in1015.6 mb - 0.00 in0.0 mm 0.02 in0.5 mm
05:20 PM 43.5°F6.4°C 37.4°F3.0°C 79% 5.3 mph W8.5 kmh W 6.0 mph9.7 kmh 29.99 in1015.6 mb - 0.00 in0.0 mm 0.02 in0.5 mm
05:10 PM 43.8°F6.6°C 38.0°F3.3°C 80% 4.8 mph WSW7.7 kmh WSW 9.0 mph14.5 kmh 29.98 in1015.2 mb - 0.00 in0.0 mm 0.02 in0.5 mm
05:00 PM 44.2°F6.8°C 38.1°F3.4°C 79% 5.3 mph WSW8.5 kmh WSW 9.0 mph14.5 kmh 29.98 in1015.2 mb - 0.00 in0.0 mm 0.02 in0.5 mm
04:50 PM 44.3°F6.8°C 38.2°F3.4°C 79% 6.2 mph WNW10.0 kmh WNW 9.0 mph14.5 kmh 29.98 in1015.2 mb - 0.00 in0.0 mm 0.02 in0.5 mm
04:40 PM 43.6°F6.4°C 37.8°F3.2°C 80% 4.5 mph NW7.2 kmh NW 7.0 mph11.3 kmh 29.97 in1014.9 mb - 0.00 in0.0 mm 0.02 in0.5 mm
04:30 PM 43.9°F6.6°C 38.5°F3.6°C 81% 5.2 mph WSW8.4 kmh WSW 7.0 mph11.3 kmh 29.97 in1014.9 mb - 0.00 in0.0 mm 0.02 in0.5 mm
04:20 PM 44.1°F6.7°C 38.3°F3.5°C 80% 3.8 mph WSW6.1 kmh WSW 6.0 mph9.7 kmh 29.96 in1014.6 mb - 0.00 in0.0 mm 0.02 in0.5 mm
04:10 PM 44.3°F6.8°C 37.5°F3.1°C 77% 3.5 mph WNW5.6 kmh WNW 7.0 mph11.3 kmh 29.96 in1014.6 mb - 0.00 in0.0 mm 0.02 in0.5 mm
04:00 PM 44.7°F7.1°C 36.2°F2.3°C 72% 4.2 mph WNW6.8 kmh WNW 6.0 mph9.7 kmh 29.96 in1014.6 mb - 0.00 in0.0 mm 0.02 in0.5 mm
03:50 PM 45.2°F7.3°C 37.4°F3.0°C 74% 7.4 mph WNW11.9 kmh WNW 11.0 mph17.7 kmh 29.95 in1014.2 mb - 0.00 in0.0 mm 0.02 in0.5 mm
03:40 PM 45.0°F7.2°C 37.9°F3.3°C 76% 3.9 mph NW6.3 kmh NW 7.0 mph11.3 kmh 29.95 in1014.2 mb - 0.00 in0.0 mm 0.02 in0.5 mm
03:30 PM 44.2°F6.8°C 37.8°F3.2°C 78% 3.3 mph NW5.3 kmh NW 6.0 mph9.7 kmh 29.95 in1014.2 mb - 0.00 in0.0 mm 0.02 in0.5 mm
03:20 PM 43.7°F6.5°C 37.0°F2.8°C 77% 5.5 mph W8.9 kmh W 6.0 mph9.7 kmh 29.95 in1014.2 mb - 0.00 in0.0 mm 0.02 in0.5 mm
03:10 PM 43.7°F6.5°C 37.3°F2.9°C 78% 3.3 mph WSW5.3 kmh WSW 10.0 mph16.1 kmh 29.94 in1013.9 mb - 0.00 in0.0 mm 0.02 in0.5 mm
03:00 PM 43.1°F6.2°C 36.7°F2.6°C 78% 1.8 mph W2.9 kmh W 3.0 mph4.8 kmh 29.94 in1013.9 mb - 0.00 in0.0 mm 0.02 in0.5 mm
02:50 PM 42.9°F6.1°C 36.5°F2.5°C 78% 3.2 mph NW5.1 kmh NW 5.0 mph8.0 kmh 29.94 in1013.9 mb - 0.00 in0.0 mm 0.02 in0.5 mm
02:40 PM 43.0°F6.1°C 37.9°F3.3°C 82% 3.5 mph NW5.6 kmh NW 4.0 mph6.4 kmh 29.94 in1013.9 mb - 0.00 in0.0 mm 0.02 in0.5 mm
02:30 PM 42.9°F6.1°C 38.7°F3.7°C 85% 4.8 mph WNW7.7 kmh WNW 5.0 mph8.0 kmh 29.94 in1013.9 mb - 0.00 in0.0 mm 0.02 in0.5 mm
02:20 PM 42.0°F5.6°C 39.0°F3.9°C 89% 2.8 mph NW4.5 kmh NW 4.0 mph6.4 kmh 29.94 in1013.9 mb - 0.00 in0.0 mm 0.02 in0.5 mm
02:10 PM 40.9°F4.9°C 38.2°F3.4°C 90% 1.5 mph W2.4 kmh W 2.0 mph3.2 kmh 29.94 in1013.9 mb - 0.00 in0.0 mm 0.02 in0.5 mm
01:50 PM 39.8°F4.3°C 37.6°F3.1°C 92% 1.2 mph SW1.9 kmh SW 4.0 mph6.4 kmh 29.94 in1013.9 mb - 0.00 in0.0 mm 0.02 in0.5 mm
01:40 PM 39.3°F4.1°C 36.9°F2.7°C 91% 3.8 mph WNW6.1 kmh WNW 5.0 mph8.0 kmh 29.94 in1013.9 mb - 0.00 in0.0 mm 0.02 in0.5 mm
01:30 PM 39.1°F3.9°C 36.4°F2.4°C 90% 0.8 mph WSW1.3 kmh WSW 2.0 mph3.2 kmh 29.94 in1013.9 mb - 0.00 in0.0 mm 0.02 in0.5 mm
01:20 PM 39.6°F4.2°C 36.6°F2.6°C 89% 1.6 mph WSW2.6 kmh WSW 3.0 mph4.8 kmh 29.93 in1013.5 mb - 0.02 in0.5 mm 0.02 in0.5 mm
01:10 PM 40.9°F4.9°C 37.4°F3.0°C 87% 4.8 mph W7.7 kmh W 12.0 mph19.3 kmh 29.93 in1013.5 mb - 0.00 in0.0 mm 0.01 in0.3 mm
01:00 PM 42.4°F5.8°C 38.0°F3.3°C 84% 4.7 mph NW7.6 kmh NW 9.0 mph14.5 kmh 29.92 in1013.2 mb - 0.00 in0.0 mm 0.01 in0.3 mm
12:50 PM 44.2°F6.8°C 38.7°F3.7°C 81% 6.6 mph W10.6 kmh W 9.0 mph14.5 kmh 29.92 in1013.2 mb - 0.00 in0.0 mm 0.01 in0.3 mm
12:40 PM 43.9°F6.6°C 39.4°F4.1°C 84% 8.6 mph SW13.8 kmh SW 10.0 mph16.1 kmh 29.92 in1013.2 mb - 0.00 in0.0 mm 0.01 in0.3 mm
12:30 PM 42.9°F6.1°C 39.0°F3.9°C 86% 5.0 mph SW8.0 kmh SW 8.0 mph12.9 kmh 29.91 in1012.9 mb - 0.00 in0.0 mm 0.01 in0.3 mm
12:20 PM 42.0°F5.6°C 38.4°F3.6°C 87% 6.2 mph WSW10.0 kmh WSW 8.0 mph12.9 kmh 29.92 in1013.2 mb - 0.00 in0.0 mm 0.01 in0.3 mm
12:10 PM 41.1°F5.1°C 38.4°F3.6°C 90% 3.7 mph SW6.0 kmh SW 5.0 mph8.0 kmh 29.92 in1013.2 mb - 0.00 in0.0 mm 0.01 in0.3 mm
12:00 PM 40.6°F4.8°C 37.6°F3.1°C 89% 4.1 mph W6.6 kmh W 5.0 mph8.0 kmh 29.91 in1012.9 mb - 0.00 in0.0 mm 0.01 in0.3 mm
11:50 AM 41.0°F5.0°C 37.4°F3.0°C 87% 4.7 mph WNW7.6 kmh WNW 5.0 mph8.0 kmh 29.91 in1012.9 mb - 0.00 in0.0 mm 0.01 in0.3 mm
11:40 AM 42.2°F5.7°C 38.1°F3.4°C 85% 4.8 mph WNW7.7 kmh WNW 15.0 mph24.1 kmh 29.91 in1012.9 mb - 0.00 in0.0 mm 0.01 in0.3 mm
11:30 AM 41.7°F5.4°C 37.5°F3.1°C 85% 2.7 mph NW4.3 kmh NW 5.0 mph8.0 kmh 29.90 in1012.5 mb - 0.00 in0.0 mm 0.01 in0.3 mm
11:20 AM 41.9°F5.5°C 37.1°F2.8°C 83% 5.9 mph W9.5 kmh W 8.0 mph12.9 kmh 29.90 in1012.5 mb - 0.00 in0.0 mm 0.01 in0.3 mm
11:10 AM 42.5°F5.8°C 37.1°F2.8°C 81% 6.7 mph WNW10.8 kmh WNW 9.0 mph14.5 kmh 29.90 in1012.5 mb - 0.00 in0.0 mm 0.01 in0.3 mm
11:00 AM 42.9°F6.1°C 36.8°F2.7°C 79% 5.6 mph W9.0 kmh W 11.0 mph17.7 kmh 29.89 in1012.2 mb - 0.00 in0.0 mm 0.01 in0.3 mm
10:50 AM 42.9°F6.1°C 37.2°F2.9°C 80% 4.3 mph WNW6.9 kmh WNW 6.0 mph9.7 kmh 29.89 in1012.2 mb - 0.00 in0.0 mm 0.01 in0.3 mm
10:40 AM 42.9°F6.1°C 37.5°F3.1°C 81% 7.9 mph W12.7 kmh W 12.0 mph19.3 kmh 29.88 in1011.9 mb - 0.00 in0.0 mm 0.01 in0.3 mm
10:30 AM 42.6°F5.9°C 38.1°F3.4°C 84% 5.0 mph W8.0 kmh W 8.0 mph12.9 kmh 29.88 in1011.9 mb - 0.00 in0.0 mm 0.01 in0.3 mm
10:20 AM 42.4°F5.8°C 37.9°F3.3°C 84% 6.3 mph WNW10.1 kmh WNW 8.0 mph12.9 kmh 29.88 in1011.9 mb - 0.00 in0.0 mm 0.01 in0.3 mm
10:10 AM 42.4°F5.8°C 38.5°F3.6°C 86% 4.4 mph WSW7.1 kmh WSW 10.0 mph16.1 kmh 29.87 in1011.5 mb - 0.00 in0.0 mm 0.01 in0.3 mm
10:00 AM 42.0°F5.6°C 38.4°F3.6°C 87% 6.2 mph WNW10.0 kmh WNW 8.0 mph12.9 kmh 29.87 in1011.5 mb - 0.00 in0.0 mm 0.01 in0.3 mm
09:50 AM 41.4°F5.2°C 38.1°F3.4°C 88% 2.8 mph W4.5 kmh W 6.0 mph9.7 kmh 29.87 in1011.5 mb - 0.00 in0.0 mm 0.01 in0.3 mm
09:40 AM 40.9°F4.9°C 37.9°F3.3°C 89% 2.8 mph S4.5 kmh S 4.0 mph6.4 kmh 29.86 in1011.2 mb - 0.00 in0.0 mm 0.01 in0.3 mm
09:30 AM 40.7°F4.8°C 37.7°F3.2°C 89% 4.1 mph SW6.6 kmh SW 5.0 mph8.0 kmh 29.86 in1011.2 mb - 0.00 in0.0 mm 0.01 in0.3 mm
09:20 AM 40.6°F4.8°C 37.6°F3.1°C 89% 2.5 mph SW4.0 kmh SW 4.0 mph6.4 kmh 29.86 in1011.2 mb - 0.00 in0.0 mm 0.01 in0.3 mm
09:10 AM 40.5°F4.7°C 37.5°F3.1°C 89% 3.0 mph W4.8 kmh W 5.0 mph8.0 kmh 29.86 in1011.2 mb - 0.00 in0.0 mm 0.01 in0.3 mm
09:00 AM 40.4°F4.7°C 37.4°F3.0°C 89% 4.0 mph W6.4 kmh W 6.0 mph9.7 kmh 29.85 in1010.8 mb - 0.00 in0.0 mm 0.01 in0.3 mm
08:50 AM 40.3°F4.6°C 37.3°F2.9°C 89% 2.8 mph SW4.5 kmh SW 5.0 mph8.0 kmh 29.84 in1010.5 mb - 0.00 in0.0 mm 0.01 in0.3 mm
08:40 AM 40.2°F4.6°C 37.2°F2.9°C 89% 4.1 mph WSW6.6 kmh WSW 7.0 mph11.3 kmh 29.84 in1010.5 mb - 0.00 in0.0 mm 0.01 in0.3 mm
08:30 AM 39.9°F4.4°C 36.9°F2.7°C 89% 3.7 mph WSW6.0 kmh WSW 6.0 mph9.7 kmh 29.83 in1010.2 mb - 0.00 in0.0 mm 0.01 in0.3 mm
08:20 AM 39.5°F4.2°C 36.5°F2.5°C 89% 2.8 mph WSW4.5 kmh WSW 4.0 mph6.4 kmh 29.83 in1010.2 mb - 0.00 in0.0 mm 0.01 in0.3 mm
08:10 AM 39.3°F4.1°C 36.1°F2.3°C 88% 2.2 mph SW3.5 kmh SW 4.0 mph6.4 kmh 29.82 in1009.8 mb - 0.00 in0.0 mm 0.01 in0.3 mm
08:00 AM 39.1°F3.9°C 36.1°F2.3°C 89% 2.7 mph SW4.3 kmh SW 3.0 mph4.8 kmh 29.82 in1009.8 mb - 0.00 in0.0 mm 0.01 in0.3 mm
07:50 AM 39.1°F3.9°C 35.9°F2.2°C 88% 2.8 mph SW4.5 kmh SW 4.0 mph6.4 kmh 29.82 in1009.8 mb - 0.00 in0.0 mm 0.01 in0.3 mm
07:40 AM 39.5°F4.2°C 36.0°F2.2°C 87% 1.5 mph SW2.4 kmh SW 4.0 mph6.4 kmh 29.81 in1009.5 mb - 0.00 in0.0 mm 0.01 in0.3 mm
07:30 AM 39.9°F4.4°C 36.0°F2.2°C 86% 2.4 mph WSW3.9 kmh WSW 2.0 mph3.2 kmh 29.81 in1009.5 mb - 0.00 in0.0 mm 0.01 in0.3 mm
07:20 AM 40.2°F4.6°C 36.1°F2.3°C 85% 2.2 mph W3.5 kmh W 3.0 mph4.8 kmh 29.80 in1009.1 mb - 0.00 in0.0 mm 0.01 in0.3 mm
07:10 AM 40.7°F4.8°C 36.2°F2.3°C 84% 4.3 mph W6.9 kmh W 6.0 mph9.7 kmh 29.80 in1009.1 mb - 0.00 in0.0 mm 0.01 in0.3 mm
07:00 AM 40.7°F4.8°C 36.2°F2.3°C 84% 4.8 mph WNW7.7 kmh WNW 7.0 mph11.3 kmh 29.80 in1009.1 mb - 0.00 in0.0 mm 0.01 in0.3 mm
06:50 AM 40.8°F4.9°C 36.4°F2.4°C 84% 5.2 mph WNW8.4 kmh WNW 9.0 mph14.5 kmh 29.79 in1008.8 mb - 0.00 in0.0 mm 0.01 in0.3 mm
06:40 AM 41.0°F5.0°C 36.6°F2.6°C 84% 4.7 mph NW7.6 kmh NW 7.0 mph11.3 kmh 29.79 in1008.8 mb - 0.00 in0.0 mm 0.01 in0.3 mm
06:30 AM 41.2°F5.1°C 36.7°F2.6°C 84% 3.5 mph WSW5.6 kmh WSW 7.0 mph11.3 kmh 29.78 in1008.5 mb - 0.00 in0.0 mm 0.01 in0.3 mm
06:20 AM 41.3°F5.2°C 36.9°F2.7°C 84% 4.7 mph WSW7.6 kmh WSW 8.0 mph12.9 kmh 29.78 in1008.5 mb - 0.00 in0.0 mm 0.01 in0.3 mm
06:10 AM 41.3°F5.2°C 36.8°F2.7°C 84% 6.0 mph W9.7 kmh W 8.0 mph12.9 kmh 29.77 in1008.1 mb - 0.00 in0.0 mm 0.01 in0.3 mm
06:00 AM 41.3°F5.2°C 36.5°F2.5°C 83% 5.2 mph SW8.4 kmh SW 7.0 mph11.3 kmh 29.76 in1007.8 mb - 0.00 in0.0 mm 0.01 in0.3 mm
05:50 AM 41.2°F5.1°C 36.4°F2.4°C 83% 3.3 mph W5.3 kmh W 8.0 mph12.9 kmh 29.76 in1007.8 mb - 0.00 in0.0 mm 0.01 in0.3 mm
05:40 AM 41.2°F5.1°C 36.7°F2.6°C 84% 5.5 mph SW8.9 kmh SW 8.0 mph12.9 kmh 29.75 in1007.5 mb - 0.00 in0.0 mm 0.01 in0.3 mm
05:30 AM 41.0°F5.0°C 36.8°F2.7°C 85% 3.2 mph SSW5.1 kmh SSW 6.0 mph9.7 kmh 29.75 in1007.5 mb - 0.00 in0.0 mm 0.01 in0.3 mm
05:20 AM 40.9°F4.9°C 37.0°F2.8°C 86% 3.1 mph W5.0 kmh W 5.0 mph8.0 kmh 29.75 in1007.5 mb - 0.00 in0.0 mm 0.01 in0.3 mm
05:10 AM 40.8°F4.9°C 36.9°F2.7°C 86% 8.9 mph WSW14.3 kmh WSW 15.0 mph24.1 kmh 29.74 in1007.1 mb - 0.00 in0.0 mm 0.01 in0.3 mm
05:00 AM 40.7°F4.8°C 36.8°F2.7°C 86% 5.3 mph W8.5 kmh W 8.0 mph12.9 kmh 29.73 in1006.8 mb - 0.00 in0.0 mm 0.01 in0.3 mm
04:50 AM 40.8°F4.9°C 36.9°F2.7°C 86% 5.5 mph W8.9 kmh W 9.0 mph14.5 kmh 29.73 in1006.8 mb - 0.00 in0.0 mm 0.01 in0.3 mm
04:40 AM 41.0°F5.0°C 37.1°F2.8°C 86% 7.1 mph W11.4 kmh W 8.0 mph12.9 kmh 29.72 in1006.4 mb - 0.00 in0.0 mm 0.01 in0.3 mm
04:30 AM 41.1°F5.1°C 36.6°F2.6°C 84% 5.5 mph W8.9 kmh W 8.0 mph12.9 kmh 29.72 in1006.4 mb - 0.00 in0.0 mm 0.01 in0.3 mm
04:20 AM 41.3°F5.2°C 36.5°F2.5°C 83% 7.0 mph SW11.3 kmh SW 11.0 mph17.7 kmh 29.71 in1006.1 mb - 0.00 in0.0 mm 0.01 in0.3 mm
04:10 AM 41.3°F5.2°C 36.8°F2.7°C 84% 7.0 mph W11.3 kmh W 9.0 mph14.5 kmh 29.71 in1006.1 mb - 0.00 in0.0 mm 0.01 in0.3 mm
04:00 AM 41.5°F5.3°C 37.0°F2.8°C 84% 4.0 mph W6.4 kmh W 7.0 mph11.3 kmh 29.71 in1006.1 mb - 0.00 in0.0 mm 0.01 in0.3 mm
03:50 AM 41.5°F5.3°C 37.0°F2.8°C 84% 7.7 mph W12.4 kmh W 12.0 mph19.3 kmh 29.70 in1005.8 mb - 0.00 in0.0 mm 0.01 in0.3 mm
03:40 AM 41.7°F5.4°C 37.2°F2.9°C 84% 9.8 mph W15.8 kmh W 13.0 mph20.9 kmh 29.70 in1005.8 mb - 0.00 in0.0 mm 0.01 in0.3 mm
03:30 AM 41.9°F5.5°C 37.1°F2.8°C 83% 10.6 mph NW17.1 kmh NW 17.0 mph27.4 kmh 29.69 in1005.4 mb - 0.00 in0.0 mm 0.01 in0.3 mm
03:20 AM 42.0°F5.6°C 37.2°F2.9°C 83% 10.9 mph WSW17.5 kmh WSW 15.0 mph24.1 kmh 29.69 in1005.4 mb - 0.00 in0.0 mm 0.01 in0.3 mm
03:10 AM 42.0°F5.6°C 37.2°F2.9°C 83% 5.9 mph WSW9.5 kmh WSW 11.0 mph17.7 kmh 29.68 in1005.1 mb - 0.00 in0.0 mm 0.01 in0.3 mm
03:00 AM 41.9°F5.5°C 37.1°F2.8°C 83% 8.2 mph W13.2 kmh W 11.0 mph17.7 kmh 29.68 in1005.1 mb - 0.00 in0.0 mm 0.01 in0.3 mm
02:50 AM 41.7°F5.4°C 37.2°F2.9°C 84% 5.6 mph W9.0 kmh W 11.0 mph17.7 kmh 29.67 in1004.7 mb - 0.00 in0.0 mm 0.01 in0.3 mm
02:40 AM 41.5°F5.3°C 37.3°F2.9°C 85% 10.7 mph WSW17.2 kmh WSW 15.0 mph24.1 kmh 29.66 in1004.4 mb - 0.01 in0.3 mm 0.01 in0.3 mm
02:30 AM 41.2°F5.1°C 37.3°F2.9°C 86% 7.7 mph WSW12.4 kmh WSW 13.0 mph20.9 kmh 29.66 in1004.4 mb - 0.00 in0.0 mm 0.00 in0.0 mm
02:20 AM 40.9°F4.9°C 37.4°F3.0°C 87% 8.9 mph SW14.3 kmh SW 13.0 mph20.9 kmh 29.65 in1004.1 mb - 0.00 in0.0 mm 0.00 in0.0 mm
02:10 AM 41.1°F5.1°C 37.6°F3.1°C 87% 7.9 mph SSW12.7 kmh SSW 15.0 mph24.1 kmh 29.65 in1004.1 mb - 0.00 in0.0 mm 0.00 in0.0 mm
02:00 AM 41.3°F5.2°C 37.7°F3.2°C 87% 7.9 mph WSW12.7 kmh WSW 11.0 mph17.7 kmh 29.64 in1003.7 mb - 0.00 in0.0 mm 0.00 in0.0 mm
01:50 AM 42.5°F5.8°C 37.4°F3.0°C 82% 10.4 mph NW16.7 kmh NW 11.0 mph17.7 kmh 29.64 in1003.7 mb - 0.00 in0.0 mm 0.00 in0.0 mm
01:40 AM 42.6°F5.9°C 37.2°F2.9°C 81% 12.5 mph SW20.1 kmh SW 15.0 mph24.1 kmh 29.63 in1003.4 mb - 0.00 in0.0 mm 0.00 in0.0 mm
01:30 AM 42.7°F5.9°C 36.9°F2.7°C 80% 8.7 mph WNW14.0 kmh WNW 17.0 mph27.4 kmh 29.62 in1003.0 mb - 0.00 in0.0 mm 0.00 in0.0 mm
01:20 AM 42.7°F5.9°C 37.0°F2.8°C 80% 9.8 mph W15.8 kmh W 14.0 mph22.5 kmh 29.62 in1003.0 mb - 0.00 in0.0 mm 0.00 in0.0 mm
01:10 AM 42.5°F5.8°C 37.4°F3.0°C 82% 8.4 mph WSW13.5 kmh WSW 11.0 mph17.7 kmh 29.61 in1002.7 mb - 0.00 in0.0 mm 0.00 in0.0 mm
01:00 AM 42.3°F5.7°C 37.5°F3.1°C 83% 6.0 mph W9.7 kmh W 7.0 mph11.3 kmh 29.61 in1002.7 mb - 0.00 in0.0 mm 0.00 in0.0 mm
12:50 AM 42.4°F5.8°C 37.6°F3.1°C 83% 9.4 mph W15.1 kmh W 14.0 mph22.5 kmh 29.60 in1002.4 mb - 0.00 in0.0 mm 0.00 in0.0 mm
12:40 AM 42.4°F5.8°C 37.3°F2.9°C 82% 11.9 mph WNW19.2 kmh WNW 15.0 mph24.1 kmh 29.58 in1001.7 mb - 0.00 in0.0 mm 0.00 in0.0 mm
12:30 AM 42.4°F5.8°C 37.6°F3.1°C 83% 7.1 mph W11.4 kmh W 11.0 mph17.7 kmh 29.58 in1001.7 mb - 0.00 in0.0 mm 0.00 in0.0 mm
12:20 AM 42.2°F5.7°C 37.7°F3.2°C 84% 8.1 mph W13.0 kmh W 9.0 mph14.5 kmh 29.57 in1001.4 mb - 0.00 in0.0 mm 0.00 in0.0 mm
12:10 AM 41.9°F5.5°C 37.7°F3.2°C 85% 7.3 mph W11.7 kmh W 24.0 mph38.6 kmh 29.55 in1000.7 mb - 0.00 in0.0 mm 0.00 in0.0 mm
12:00 AM 42.0°F5.6°C 37.8°F3.2°C 85% 14.8 mph NW23.8 kmh NW 22.0 mph35.4 kmh 29.55 in1000.7 mb - 0.00 in0.0 mm 0.00 in0.0 mm